Time;durP1;ratioP1;P1;durP2;ratioP2;P2;SDS_P1;SDS_P2;PMS_P1;PMS_P2;Temp;Humidity;BMP_temperature;BMP_pressure;BME280_temperature;BME280_humidity;BME280_pressure;Samples;Min_cycle;Max_cycle;Signal;HPM_P1;HPM_P2
2021/06/17 00:01:07;;;;;;;5.40;2.85;;;;;;;20.05;53.53;101066.28;5112836;28;20491;-72
2021/06/17 00:03:33;;;;;;;4.63;2.90;;;;;;;20.05;53.84;101060.16;5095008;28;20038;-72
2021/06/17 00:05:58;;;;;;;4.65;3.35;;;;;;;20.21;52.82;101061.31;5077553;28;20053;-71
2021/06/17 00:08:23;;;;;;;4.78;3.00;;;;;;;20.21;52.83;101050.84;5095176;28;20099;-72
2021/06/17 00:10:50;;;;;;;7.20;3.33;;;;;;;20.06;53.20;101062.81;5095287;28;20452;-72
2021/06/17 00:13:26;;;;;;;4.82;2.75;;;;;;;20.05;52.93;101053.22;5094200;28;20480;-72
2021/06/17 00:15:54;;;;;;;4.97;2.97;;;;;;;20.09;52.47;101054.13;5095225;28;20106;-72
2021/06/17 00:18:19;;;;;;;5.78;3.25;;;;;;;20.00;53.03;101047.03;5077883;28;20031;-71
2021/06/17 00:20:45;;;;;;;8.48;3.05;;;;;;;20.03;52.96;101047.09;5112994;28;20487;-72
2021/06/17 00:23:11;;;;;;;6.50;3.40;;;;;;;19.98;52.58;101049.59;5094994;28;20026;-72
2021/06/17 00:25:37;;;;;;;5.60;3.05;;;;;;;20.02;52.42;101045.31;5112813;28;20161;-71
2021/06/17 00:28:03;;;;;;;6.60;2.85;;;;;;;19.91;52.37;101052.97;5094811;28;20544;-71
2021/06/17 00:30:29;;;;;;;5.57;2.80;;;;;;;19.93;52.86;101055.63;5093683;28;20044;-71
2021/06/17 00:32:55;;;;;;;5.10;2.65;;;;;;;19.99;52.34;101050.50;5094289;28;20114;-72
2021/06/17 00:35:25;;;;;;;8.25;3.28;;;;;;;20.00;52.06;101052.25;5094645;28;20032;-71
2021/06/17 00:37:52;;;;;;;7.45;3.10;;;;;;;19.96;51.73;101046.09;5113009;28;20020;-71
2021/06/17 00:40:19;;;;;;;6.07;2.67;;;;;;;20.13;51.48;101049.00;5113215;28;20042;-72
2021/06/17 00:42:46;;;;;;;4.95;2.60;;;;;;;20.02;51.72;101053.16;5094210;28;20051;-72
2021/06/17 00:45:15;;;;;;;7.85;2.85;;;;;;;19.90;51.77;101050.34;5096955;28;20521;-71
2021/06/17 00:47:41;;;;;;;8.70;2.50;;;;;;;19.85;51.47;101047.59;5117192;28;20028;-72
2021/06/17 00:50:08;;;;;;;4.00;2.20;;;;;;;19.92;51.24;101051.25;5116718;28;20541;-71
2021/06/17 00:52:34;;;;;;;4.00;2.75;;;;;;;19.87;51.85;101050.25;5098762;28;20031;-72
2021/06/17 00:55:00;;;;;;;3.97;2.40;;;;;;;19.87;51.28;101050.25;5098077;28;20028;-72
2021/06/17 00:57:26;;;;;;;6.68;2.63;;;;;;;19.76;51.35;101053.56;5098824;28;20027;-72
2021/06/17 00:59:51;;;;;;;5.60;2.63;;;;;;;19.72;51.31;101041.31;5098166;28;20020;-72
2021/06/17 01:02:17;;;;;;;5.18;2.25;;;;;;;19.73;51.32;101042.16;5081523;28;20035;-71
2021/06/17 01:04:43;;;;;;;8.50;2.75;;;;;;;19.70;51.59;101043.00;5098606;28;20023;-71
2021/06/17 01:07:09;;;;;;;7.38;2.45;;;;;;;19.70;51.38;101037.78;5098188;28;20031;-71
2021/06/17 01:09:51;;;;;;;4.05;2.53;;;;;;;19.59;51.34;101044.50;5098603;28;20094;-71
2021/06/17 01:12:36;;;;;;;5.07;2.53;;;;;;;19.63;51.08;101033.28;5081569;28;20380;-72
2021/06/17 01:15:06;;;;;;;3.65;2.20;;;;;;;19.62;51.02;101028.94;5098220;28;20069;-72
2021/06/17 01:17:43;;;;;;;4.85;2.33;;;;;;;19.54;51.25;101027.03;5097741;28;20100;-71
2021/06/17 01:20:24;;;;;;;6.28;2.80;;;;;;;19.52;51.31;101023.50;5098211;28;20026;-71
2021/06/17 01:22:52;;;;;;;5.45;2.55;;;;;;;19.56;51.29;101027.94;5097942;28;20088;-72
2021/06/17 01:25:30;;;;;;;6.50;2.83;;;;;;;19.54;51.13;101031.38;5097994;28;20024;-72
2021/06/17 01:28:18;;;;;;;5.90;2.65;;;;;;;19.55;50.81;101023.56;5097719;28;20031;-72
2021/06/17 01:30:51;;;;;;;4.80;2.50;;;;;;;19.52;50.66;101020.88;5097488;28;20567;-72
2021/06/17 01:33:17;;;;;;;4.32;2.47;;;;;;;19.43;50.86;101012.88;5097879;28;20027;-71
2021/06/17 01:35:48;;;;;;;3.58;2.25;;;;;;;19.46;50.75;101018.16;5080801;28;20020;-72
2021/06/17 01:38:18;;;;;;;7.80;2.70;;;;;;;19.45;50.31;101011.19;5080942;28;20114;-72
2021/06/17 01:40:43;;;;;;;;;;;;;;;19.39;50.65;101013.69;5116430;28;20036;-72
2021/06/17 01:43:09;;;;;;;6.05;2.35;;;;;;;19.36;50.67;101011.00;5114519;28;19922;-72
2021/06/17 01:45:35;;;;;;;3.55;2.08;;;;;;;19.39;50.32;101011.06;5097573;28;20027;-72
2021/06/17 01:48:01;;;;;;;6.47;2.80;;;;;;;19.32;50.32;101010.09;5080358;28;20023;-72
2021/06/17 01:50:28;;;;;;;6.72;2.47;;;;;;;19.26;50.60;101000.41;5097198;28;20037;-72
2021/06/17 01:52:55;;;;;;;3.60;2.10;;;;;;;19.30;50.51;101000.44;5097121;28;20097;-72
2021/06/17 01:55:21;;;;;;;5.78;2.00;;;;;;;19.31;50.20;101007.44;5097474;28;20103;-72
2021/06/17 01:57:48;;;;;;;6.60;2.30;;;;;;;19.35;50.22;100996.19;5096465;28;20381;-71
2021/06/17 02:00:14;;;;;;;7.05;2.13;;;;;;;19.29;50.28;100998.69;5097057;27;20157;-72
2021/06/17 02:02:40;;;;;;;6.95;2.10;;;;;;;19.27;49.65;101003.91;5106064;28;20028;-71
2021/06/17 02:05:07;;;;;;;4.15;2.00;;;;;;;19.32;49.81;101001.34;5097610;28;20072;-72
2021/06/17 02:07:33;;;;;;;5.38;2.38;;;;;;;19.25;50.09;100998.63;5097131;28;20099;-72
2021/06/17 02:09:59;;;;;;;5.22;2.40;;;;;;;19.29;49.64;100999.59;5097290;28;20559;-71
2021/06/17 02:12:25;;;;;;;3.80;1.95;;;;;;;19.29;49.33;101001.31;5087452;28;20097;-72
2021/06/17 02:14:51;;;;;;;7.68;2.50;;;;;;;19.15;49.84;100996.69;5082141;28;20113;-71
2021/06/17 02:17:17;;;;;;;4.88;2.45;;;;;;;19.16;49.79;100993.25;5095815;28;20144;-71
2021/06/17 02:19:43;;;;;;;3.35;2.28;;;;;;;19.07;49.83;100998.28;5095643;28;20395;-72
2021/06/17 02:22:11;;;;;;;4.75;1.90;;;;;;;19.18;49.65;100991.53;5079503;28;20031;-72
2021/06/17 02:24:38;;;;;;;3.83;2.15;;;;;;;19.10;49.83;100998.34;5096688;28;20131;-71
2021/06/17 02:27:11;;;;;;;5.13;2.13;;;;;;;19.04;50.04;100993.88;5096642;28;20016;-68
2021/06/17 02:29:42;;;;;;;4.80;2.28;;;;;;;19.10;49.95;100998.34;5114646;28;20040;-69
2021/06/17 02:32:09;;;;;;;6.13;2.03;;;;;;;19.14;49.80;100999.28;5093587;28;20098;-69
2021/06/17 02:34:36;;;;;;;3.65;2.13;;;;;;;19.01;49.73;100992.94;5096545;28;20380;-69
2021/06/17 02:37:03;;;;;;;4.50;1.83;;;;;;;18.98;49.74;100989.41;5096700;28;20094;-68
2021/06/17 02:39:29;;;;;;;7.47;2.30;;;;;;;18.94;50.55;100992.78;5096610;28;20108;-69
2021/06/17 02:41:57;;;;;;;3.72;2.00;;;;;;;18.88;50.58;100992.66;5096139;28;20484;-68
2021/06/17 02:44:25;;;;;;;4.95;2.05;;;;;;;18.79;50.50;100982.03;5096472;28;20039;-69
2021/06/17 02:46:51;;;;;;;6.20;2.38;;;;;;;18.87;50.55;100990.91;5096256;28;20076;-69
2021/06/17 02:49:17;;;;;;;5.55;2.13;;;;;;;18.89;50.44;100983.97;5096598;28;20028;-68
2021/06/17 02:51:43;;;;;;;6.22;2.17;;;;;;;18.80;50.32;100979.44;5095836;28;20395;-68
2021/06/17 02:54:10;;;;;;;6.43;2.47;;;;;;;18.81;50.89;100981.19;5114235;28;20460;-69
2021/06/17 02:57:05;;;;;;;3.00;1.95;;;;;;;18.86;50.68;100978.69;5096399;28;20020;-68
2021/06/17 02:59:42;;;;;;;3.10;1.92;;;;;;;18.75;50.76;100980.22;5094313;28;20031;-68
2021/06/17 03:02:14;;;;;;;4.38;2.00;;;;;;;18.65;51.22;100973.91;5114272;28;20031;-68
2021/06/17 03:05:18;;;;;;;5.38;2.00;;;;;;;18.68;50.93;100980.09;5096211;28;20476;-68
2021/06/17 03:07:56;;;;;;;6.32;1.83;;;;;;;18.61;50.86;100967.75;5088579;27;20054;-68
2021/06/17 03:10:22;;;;;;;4.85;2.47;;;;;;;18.57;51.04;100965.94;5104799;27;20019;-68
2021/06/17 03:12:48;;;;;;;5.32;2.00;;;;;;;18.50;51.44;100964.00;5102252;28;20075;-68
2021/06/17 03:15:15;;;;;;;7.05;1.88;;;;;;;18.56;50.93;100964.16;5104434;27;20031;-69
2021/06/17 03:17:49;;;;;;;4.00;2.00;;;;;;;18.59;51.32;100961.63;5104569;27;20031;-68
2021/06/17 03:20:17;;;;;;;6.93;2.17;;;;;;;18.58;51.27;100967.69;5088232;27;20052;-69
2021/06/17 03:22:49;;;;;;;6.32;2.35;;;;;;;18.51;51.16;100960.56;5105228;27;20482;-69
2021/06/17 03:25:17;;;;;;;4.15;2.13;;;;;;;18.51;51.22;100961.44;5102407;27;20028;-69
2021/06/17 03:27:44;;;;;;;8.50;2.00;;;;;;;18.47;50.86;100963.94;5116116;27;20030;-68
2021/06/17 03:30:11;;;;;;;4.00;2.13;;;;;;;18.43;51.33;100967.31;5084202;28;20032;-69
2021/06/17 03:32:38;;;;;;;3.17;1.67;;;;;;;18.54;50.87;100971.03;5078513;28;20023;-68
2021/06/17 03:35:04;;;;;;;2.65;2.00;;;;;;;18.60;50.84;100971.22;5113866;28;20122;-68
2021/06/17 03:37:29;;;;;;;4.18;2.22;;;;;;;18.58;50.93;100967.69;5078428;28;20099;-68
2021/06/17 03:39:57;;;;;;;5.40;2.10;;;;;;;18.51;51.13;100965.75;5078536;28;20027;-69
2021/06/17 03:42:23;;;;;;;3.80;2.03;;;;;;;18.44;51.18;100970.00;5095037;28;20031;-69
2021/06/17 03:44:50;;;;;;;4.20;2.10;;;;;;;18.58;51.09;100975.53;5095578;28;20381;-69
2021/06/17 03:47:16;;;;;;;6.97;2.42;;;;;;;18.77;50.30;100978.50;5094985;28;20042;-68
2021/06/17 03:49:43;;;;;;;3.40;2.22;;;;;;;18.64;50.83;100980.88;5113609;28;20477;-68
2021/06/17 03:52:09;;;;;;;3.88;1.80;;;;;;;18.65;51.35;100982.63;5075537;28;20538;-68
2021/06/17 03:54:36;;;;;;;5.18;2.60;;;;;;;18.59;51.09;100985.09;5094630;28;20041;-68
2021/06/17 03:57:03;;;;;;;4.25;2.22;;;;;;;18.59;51.04;100979.88;5075005;28;20027;-68
2021/06/17 03:59:38;;;;;;;5.50;2.15;;;;;;;18.61;51.12;100980.81;5093015;28;20020;-68
2021/06/17 04:02:04;;;;;;;5.57;2.10;;;;;;;18.64;50.83;100973.03;5091228;28;20043;-68
2021/06/17 04:04:30;;;;;;;4.55;2.00;;;;;;;18.72;51.30;100974.94;5095223;28;20112;-68
2021/06/17 04:06:57;;;;;;;4.13;2.50;;;;;;;18.71;51.34;100978.38;5094741;28;20055;-68
2021/06/17 04:09:28;;;;;;;4.07;2.15;;;;;;;18.73;51.01;100976.69;5095266;28;20503;-70
2021/06/17 04:12:07;;;;;;;8.07;2.20;;;;;;;18.68;51.82;100968.75;5095028;28;20037;-71
2021/06/17 04:14:35;;;;;;;7.07;2.03;;;;;;;18.65;51.62;100966.06;5113136;28;20024;-71
2021/06/17 04:17:03;;;;;;;4.10;2.00;;;;;;;18.71;51.23;100960.13;5094819;28;20105;-71
2021/06/17 04:19:30;;;;;;;6.68;2.50;;;;;;;18.67;51.70;100967.88;5094827;28;20016;-71
2021/06/17 04:21:59;;;;;;;4.07;2.22;;;;;;;18.76;51.25;100961.09;5094509;28;20054;-70
2021/06/17 04:24:25;;;;;;;3.90;2.13;;;;;;;18.78;51.45;100956.78;5094705;28;20023;-71
2021/06/17 04:26:53;;;;;;;4.10;2.15;;;;;;;18.86;51.31;100957.81;5094735;28;20052;-71
2021/06/17 04:29:19;;;;;;;6.90;2.25;;;;;;;19.01;50.57;100966.84;5091378;28;20494;-71
2021/06/17 04:31:47;;;;;;;5.38;1.90;;;;;;;19.10;51.11;100961.78;5091092;28;20032;-71
2021/06/17 04:34:12;;;;;;;5.30;2.60;;;;;;;18.97;51.73;100958.06;5091585;28;20047;-72
2021/06/17 04:36:39;;;;;;;5.40;1.85;;;;;;;18.88;51.97;100966.56;5091331;28;20453;-71
2021/06/17 04:39:05;;;;;;;5.35;2.38;;;;;;;18.92;51.44;100962.25;5087846;28;20028;-71
2021/06/17 04:41:31;;;;;;;4.97;2.90;;;;;;;18.87;52.10;100964.81;5074439;28;20488;-71
2021/06/17 04:44:00;;;;;;;6.35;2.60;;;;;;;18.90;51.67;100972.69;5074318;28;20036;-71
2021/06/17 04:46:28;;;;;;;5.97;2.55;;;;;;;19.10;51.67;100962.69;5091240;28;20020;-71
2021/06/17 04:48:54;;;;;;;5.68;2.50;;;;;;;19.07;51.51;100965.22;5074445;28;20388;-72
2021/06/17 04:51:20;;;;;;;6.95;2.67;;;;;;;19.10;52.47;100957.47;5091184;28;20545;-71
2021/06/17 04:53:45;;;;;;;4.10;2.38;;;;;;;19.14;52.38;100952.31;5092038;28;20110;-71
2021/06/17 04:56:13;;;;;;;5.38;2.70;;;;;;;19.22;51.78;100955.94;5091147;28;20012;-71
2021/06/17 04:58:39;;;;;;;6.25;2.50;;;;;;;19.26;52.05;100945.56;5091341;28;20024;-71
2021/06/17 05:01:05;;;;;;;5.53;2.78;;;;;;;19.39;52.28;100951.00;5091811;28;20031;-71
2021/06/17 05:03:32;;;;;;;4.80;2.25;;;;;;;19.48;51.99;100958.13;5091202;28;20530;-71
2021/06/17 05:05:59;;;;;;;4.20;2.58;;;;;;;19.45;51.49;100953.72;5090959;28;20028;-71
2021/06/17 05:10:57;;;;;;;5.05;2.58;;;;;;;19.54;52.26;100947.78;5103799;28;20032;-71
2021/06/17 05:13:28;;;;;;;8.27;3.17;;;;;;;19.70;51.86;100948.94;5095942;28;20177;-70
2021/06/17 05:15:55;;;;;;;4.80;3.00;;;;;;;19.71;51.90;100945.47;5099736;28;20022;-72
2021/06/17 05:18:22;;;;;;;5.90;2.75;;;;;;;19.74;52.57;100950.75;5098968;28;20034;-71
2021/06/17 05:20:49;;;;;;;4.63;2.75;;;;;;;19.76;52.85;100959.47;5098725;28;20059;-71
2021/06/17 05:23:18;;;;;;;4.65;2.95;;;;;;;19.82;52.30;100949.13;5100216;28;20032;-71
2021/06/17 05:25:44;;;;;;;6.82;2.80;;;;;;;19.98;52.42;100972.94;5098979;28;20024;-71
2021/06/17 05:28:14;;;;;;;5.05;2.72;;;;;;;20.06;52.47;100968.69;5091971;28;20024;-72
2021/06/17 05:30:43;;;;;;;11.63;3.10;;;;;;;20.18;52.41;100956.66;5086940;28;20093;-71
2021/06/17 05:33:09;;;;;;;7.00;3.50;;;;;;;20.22;52.68;100961.06;5083697;28;20073;-71
2021/06/17 05:35:35;;;;;;;6.35;3.38;;;;;;;20.34;52.89;100963.84;5093908;28;20028;-70
2021/06/17 05:38:01;;;;;;;6.65;3.65;;;;;;;20.35;52.80;100965.63;5093634;28;20052;-71
2021/06/17 05:40:26;;;;;;;10.18;4.20;;;;;;;20.42;53.33;100957.00;5093899;28;20160;-71
2021/06/17 05:42:52;;;;;;;11.00;4.63;;;;;;;20.56;52.26;100962.44;5093935;28;20365;-72
2021/06/17 05:45:17;;;;;;;10.85;3.60;;;;;;;20.63;52.17;100965.97;5094044;28;20136;-72
2021/06/17 05:47:43;;;;;;;7.18;3.78;;;;;;;20.71;52.42;100964.38;5090864;28;20409;-71
2021/06/17 05:50:09;;;;;;;9.23;3.78;;;;;;;20.75;52.64;100964.41;5085194;28;20043;-72
2021/06/17 05:52:35;;;;;;;11.20;3.58;;;;;;;20.94;52.64;100966.41;5085673;28;20093;-72
2021/06/17 05:55:01;;;;;;;11.18;3.92;;;;;;;21.02;51.90;100964.75;5084782;28;20111;-71
2021/06/17 05:57:26;;;;;;;6.72;3.83;;;;;;;21.00;52.85;100966.47;5078352;28;20067;-71
2021/06/17 05:59:51;;;;;;;8.38;3.55;;;;;;;20.99;52.11;100962.09;5078219;28;20032;-71
2021/06/17 06:02:23;;;;;;;7.47;4.40;;;;;;;21.07;52.64;100969.16;5083006;28;20043;-71
2021/06/17 06:04:49;;;;;;;5.65;3.97;;;;;;;21.25;53.24;100971.97;5083710;28;20497;-69
2021/06/17 06:07:15;;;;;;;6.65;3.78;;;;;;;21.44;53.02;100972.16;5084282;28;20024;-69
2021/06/17 06:09:41;;;;;;;13.65;4.10;;;;;;;21.53;52.36;100974.84;5087993;28;20024;-68
2021/06/17 06:12:09;;;;;;;9.90;4.60;;;;;;;21.54;52.65;100974.00;5083780;28;20080;-69
2021/06/17 06:14:35;;;;;;;9.23;3.67;;;;;;;21.66;52.39;100964.50;5089805;28;20494;-69
2021/06/17 06:17:02;;;;;;;7.38;3.83;;;;;;;21.78;52.01;100976.84;5084214;28;20088;-69
2021/06/17 06:19:29;;;;;;;9.60;4.47;;;;;;;21.71;51.80;100970.66;5081572;28;20024;-69
2021/06/17 06:21:55;;;;;;;9.68;4.35;;;;;;;21.93;52.17;100981.34;5089760;28;20028;-69
2021/06/17 06:24:20;;;;;;;8.25;4.40;;;;;;;22.02;51.90;100984.06;5093340;28;20051;-69
2021/06/17 06:26:46;;;;;;;7.40;4.25;;;;;;;22.22;51.10;100983.31;5087204;28;20031;-69
2021/06/17 06:29:12;;;;;;;10.00;4.35;;;;;;;22.31;51.93;100984.25;5082846;28;20073;-68
2021/06/17 06:31:38;;;;;;;10.30;4.63;;;;;;;22.38;51.21;100990.41;5074547;28;20029;-69
2021/06/17 06:34:03;;;;;;;10.00;4.18;;;;;;;22.38;50.95;100985.16;5076584;28;20473;-69
2021/06/17 06:36:29;;;;;;;10.95;4.35;;;;;;;22.54;50.86;100980.00;5071294;28;20457;-69
2021/06/17 06:38:55;;;;;;;8.80;4.40;;;;;;;22.69;49.86;100982.69;5084603;28;20099;-69
2021/06/17 06:41:20;;;;;;;7.43;4.60;;;;;;;22.66;51.22;100990.56;5079403;28;20037;-69
2021/06/17 06:43:46;;;;;;;9.85;4.40;;;;;;;22.94;50.90;100990.72;5082389;28;20024;-69
2021/06/17 06:46:12;;;;;;;9.50;4.13;;;;;;;22.86;50.24;100987.19;5084631;28;20028;-69
2021/06/17 06:48:37;;;;;;;10.63;4.75;;;;;;;23.05;50.22;100999.50;5087385;28;20024;-69
2021/06/17 06:51:02;;;;;;;8.27;4.28;;;;;;;22.94;49.87;101003.84;5081802;28;20059;-68
2021/06/17 06:53:28;;;;;;;8.65;4.30;;;;;;;23.01;50.07;100997.72;5084852;28;20020;-72
2021/06/17 06:55:54;;;;;;;11.23;4.65;;;;;;;23.15;50.55;100994.25;5082299;28;20024;-72
2021/06/17 06:58:19;;;;;;;13.43;3.90;;;;;;;23.40;49.92;101010.13;5081813;28;20034;-72
2021/06/17 07:00:44;;;;;;;10.38;4.57;;;;;;;23.53;50.55;101006.63;5082743;28;20024;-72
2021/06/17 07:03:11;;;;;;;8.10;4.72;;;;;;;23.88;49.43;101007.53;5093979;28;20103;-71
2021/06/17 07:05:59;;;;;;;7.63;4.35;;;;;;;24.05;48.65;101010.19;5078230;28;20039;-72
2021/06/17 07:08:25;;;;;;;11.88;4.15;;;;;;;24.19;49.44;101008.41;5069032;28;20397;-71
2021/06/17 07:10:50;;;;;;;9.25;4.32;;;;;;;24.41;49.01;101002.25;5062021;28;20033;-71
2021/06/17 07:13:16;;;;;;;9.82;4.03;;;;;;;24.58;48.38;101010.06;5066942;28;20032;-71
2021/06/17 07:15:43;;;;;;;6.65;4.47;;;;;;;24.49;48.38;101000.47;5073210;28;20036;-71
2021/06/17 07:18:08;;;;;;;8.63;4.88;;;;;;;24.43;47.61;101011.88;5071702;28;20032;-71
2021/06/17 07:20:34;;;;;;;5.45;3.70;;;;;;;24.61;47.93;101007.44;5064212;28;20039;-71
2021/06/17 07:22:59;;;;;;;8.48;4.47;;;;;;;24.75;46.95;101008.28;5071599;28;20020;-72
2021/06/17 07:25:26;;;;;;;9.02;4.90;;;;;;;24.96;47.85;101008.22;5071695;28;20090;-72
2021/06/17 07:27:53;;;;;;;5.55;3.70;;;;;;;24.98;47.25;101009.97;5072906;28;20051;-72
2021/06/17 07:30:21;;;;;;;13.45;4.70;;;;;;;25.33;47.73;101011.53;5093609;27;20048;-74
2021/06/17 07:32:46;;;;;;;11.85;5.32;;;;;;;25.41;46.40;101003.56;5103085;27;20433;-72
2021/06/17 07:35:14;;;;;;;13.40;4.90;;;;;;;25.28;45.87;101002.78;5103140;27;20160;-72
2021/06/17 07:37:40;;;;;;;21.45;4.60;;;;;;;25.44;47.23;101010.56;5105417;27;20021;-72
2021/06/17 07:40:08;;;;;;;10.48;4.97;;;;;;;25.77;45.74;101011.25;5121435;27;20038;-72
2021/06/17 07:43:19;;;;;;;5.97;4.38;;;;;;;26.00;46.18;101012.81;5106584;27;20036;-72
2021/06/17 07:45:44;;;;;;;9.30;4.53;;;;;;;25.84;45.67;101002.38;5105938;27;20148;-72
2021/06/17 07:48:11;;;;;;;10.23;4.75;;;;;;;25.86;46.53;101011.16;5096018;27;20023;-71
2021/06/17 07:50:40;;;;;;;13.88;4.60;;;;;;;25.95;45.70;101007.56;5120052;27;20019;-72
2021/06/17 07:53:06;;;;;;;;;;;;;;;26.03;47.07;101018.06;5098312;28;20476;-72
2021/06/17 07:55:33;;;;;;;10.00;4.90;;;;;;;26.47;44.44;101018.53;5112218;27;19911;-73
2021/06/17 07:57:58;;;;;;;13.35;3.90;;;;;;;26.52;45.86;101000.91;5115604;27;20030;-74
2021/06/17 08:00:24;;;;;;;11.18;4.38;;;;;;;26.75;44.40;101008.50;5075140;28;20110;-70
2021/06/17 08:02:49;;;;;;;6.80;4.25;;;;;;;26.74;44.61;101009.41;5110383;28;20020;-72
2021/06/17 08:05:17;;;;;;;17.15;4.82;;;;;;;27.00;45.24;101013.50;5071633;28;20384;-73
2021/06/17 08:07:42;;;;;;;8.50;4.70;;;;;;;26.92;44.01;101010.09;5090776;28;20023;-74
2021/06/17 08:10:09;;;;;;;9.15;5.00;;;;;;;27.23;44.35;101012.34;5091356;28;20046;-73
2021/06/17 08:12:34;;;;;;;7.75;4.63;;;;;;;27.24;43.85;101014.09;5101708;27;20106;-72
2021/06/17 08:14:59;;;;;;;8.82;5.03;;;;;;;27.45;43.68;101014.66;5089636;28;20119;-74
2021/06/17 08:17:25;;;;;;;11.18;4.93;;;;;;;27.55;43.52;101016.31;5109636;28;20442;-73
2021/06/17 08:19:50;;;;;;;11.73;4.50;;;;;;;27.84;44.21;101012.28;5111751;28;20107;-73
2021/06/17 08:22:16;;;;;;;7.40;5.20;;;;;;;27.65;42.73;101017.03;5095337;28;20059;-73
2021/06/17 08:24:47;;;;;;;5.50;4.40;;;;;;;27.96;43.27;101017.38;5116323;28;20032;-72
2021/06/17 08:27:13;;;;;;;9.75;4.30;;;;;;;28.04;43.61;101013.72;5118160;28;20023;-72
2021/06/17 08:29:38;;;;;;;12.98;4.45;;;;;;;28.28;42.27;101002.72;5095736;28;20063;-72
2021/06/17 08:32:04;;;;;;;8.05;4.38;;;;;;;28.56;42.37;101001.28;5097253;28;20081;-73
2021/06/17 08:34:32;;;;;;;8.88;5.43;;;;;;;28.56;42.30;100996.88;5100133;28;20027;-71
2021/06/17 08:36:58;;;;;;;8.18;4.25;;;;;;;28.66;41.12;100996.69;5092209;28;20097;-72
2021/06/17 08:39:23;;;;;;;10.77;4.70;;;;;;;28.68;42.82;100994.88;5096790;28;20028;-71
2021/06/17 08:41:50;;;;;;;8.50;4.55;;;;;;;28.89;42.83;101004.19;5095020;28;20055;-72
2021/06/17 08:44:16;;;;;;;7.47;4.93;;;;;;;29.20;41.72;101002.66;5094860;28;20032;-72
2021/06/17 08:46:41;;;;;;;9.27;5.18;;;;;;;29.49;40.60;101003.75;5096864;28;20040;-73
2021/06/17 08:49:08;;;;;;;7.03;4.75;;;;;;;29.64;40.39;100987.47;5092579;28;20026;-73
2021/06/17 08:51:39;;;;;;;6.68;4.70;;;;;;;29.53;40.06;100994.81;5095090;28;20023;-73
2021/06/17 08:54:05;;;;;;;17.33;4.78;;;;;;;29.87;39.69;100983.34;5094677;28;20068;-73
2021/06/17 08:56:30;;;;;;;8.18;4.78;;;;;;;30.26;38.68;100977.91;5093907;28;20413;-72
2021/06/17 08:58:57;;;;;;;8.32;4.55;;;;;;;30.25;38.29;100978.84;5093260;28;20057;-72
2021/06/17 09:01:25;;;;;;;8.00;4.55;;;;;;;30.15;37.58;100979.97;5088531;28;20425;-74
2021/06/17 09:03:50;;;;;;;7.10;5.25;;;;;;;29.10;39.79;100971.00;5096595;28;20074;-72
2021/06/17 09:06:18;;;;;;;8.55;5.13;;;;;;;29.73;39.55;100976.59;5100907;28;20523;-72
2021/06/17 09:08:56;;;;;;;10.38;5.15;;;;;;;30.29;38.31;100975.16;5102270;28;20028;-73
2021/06/17 09:11:22;;;;;;;8.45;5.43;;;;;;;30.29;37.42;100975.16;5100535;28;20023;-72
2021/06/17 09:13:47;;;;;;;9.88;4.97;;;;;;;30.26;38.34;100975.25;5103437;27;20032;-72
2021/06/17 09:16:29;;;;;;;8.75;4.70;;;;;;;30.29;38.74;100967.22;5102220;28;20016;-73
2021/06/17 09:19:02;;;;;;;12.27;5.20;;;;;;;30.35;37.61;100978.56;5082203;28;20097;-72
2021/06/17 09:21:28;;;;;;;17.38;4.63;;;;;;;30.66;37.46;100972.38;5100761;28;20029;-72
2021/06/17 09:23:53;;;;;;;7.32;5.32;;;;;;;30.53;36.95;100966.53;5108790;28;20024;-72
2021/06/17 09:26:21;;;;;;;13.38;5.00;;;;;;;30.83;37.49;100964.78;5082548;28;20105;-72
2021/06/17 09:29:01;;;;;;;9.00;4.67;;;;;;;31.41;35.95;100960.34;5074356;28;20115;-72
2021/06/17 09:31:32;;;;;;;7.07;5.03;;;;;;;31.18;35.07;100964.63;5099845;27;20511;-72
2021/06/17 09:34:00;;;;;;;13.38;5.15;;;;;;;32.25;34.17;100953.00;5106630;27;20019;-72
2021/06/17 09:39:48;;;;;;;6.63;4.65;;;;;;;32.92;31.63;100954.06;5107439;28;20111;-71
2021/06/17 09:42:14;;;;;;;9.00;4.30;;;;;;;33.58;31.28;100946.13;5121414;27;20098;-71
2021/06/17 09:44:41;;;;;;;10.13;4.55;;;;;;;34.13;31.13;100937.50;5120635;27;20019;-72
2021/06/17 09:47:32;;;;;;;8.55;4.55;;;;;;;33.44;30.92;100933.34;5099108;27;20023;-69
2021/06/17 09:50:00;;;;;;;8.90;4.57;;;;;;;34.31;30.10;100933.09;5113299;27;20043;-72
2021/06/17 09:52:39;;;;;;;12.65;4.35;;;;;;;34.82;29.41;100932.56;5079598;28;20028;-72
2021/06/17 09:55:05;;;;;;;8.70;4.35;;;;;;;35.08;29.13;100935.78;5090874;28;20043;-71
2021/06/17 09:57:34;;;;;;;7.32;4.68;;;;;;;36.24;26.54;100926.31;5092804;27;20051;-71
2021/06/17 10:00:13;;;;;;;7.65;4.68;;;;;;;36.08;27.36;100927.16;5075173;28;20465;-71
2021/06/17 10:02:39;;;;;;;7.68;4.43;;;;;;;36.86;26.05;100933.66;5105603;27;20031;-71
2021/06/17 10:05:20;;;;;;;8.40;4.80;;;;;;;37.47;25.44;100936.41;5091778;28;20051;-72
2021/06/17 10:07:47;;;;;;;9.25;4.28;;;;;;;36.57;26.63;100928.09;5092090;28;20167;-72
2021/06/17 10:10:14;;;;;;;9.65;4.60;;;;;;;37.67;23.81;100923.63;5094499;28;20022;-72
2021/06/17 10:12:41;;;;;;;6.00;4.53;;;;;;;38.83;24.49;100926.25;5094263;28;20020;-72
2021/06/17 10:15:07;;;;;;;7.97;5.13;;;;;;;39.43;23.03;100929.47;5092926;28;20034;-73
2021/06/17 10:17:33;;;;;;;12.88;4.70;;;;;;;40.04;22.54;100928.88;5087782;28;20027;-71
2021/06/17 10:20:01;;;;;;;8.02;4.68;;;;;;;37.69;24.63;100921.69;5111655;28;20463;-71
2021/06/17 10:22:29;;;;;;;12.48;4.32;;;;;;;41.27;21.42;100920.81;5093059;28;20308;-72
2021/06/17 10:24:55;;;;;;;6.88;4.40;;;;;;;38.58;23.18;100930.53;5110108;28;20027;-72
2021/06/17 10:27:33;;;;;;;6.20;4.35;;;;;;;39.06;22.94;100918.50;5093724;28;20030;-71
2021/06/17 10:29:59;;;;;;;7.00;4.63;;;;;;;40.86;20.63;100911.31;5095668;28;20048;-71
2021/06/17 10:32:37;;;;;;;9.13;4.15;;;;;;;37.07;26.15;100912.75;5102835;28;20115;-71
2021/06/17 10:38:25;;;;;;;10.48;6.47;;;;;;;40.49;20.27;100908.59;5098795;28;20582;-72
2021/06/17 10:40:53;;;;;;;7.50;4.80;;;;;;;40.33;21.45;100909.75;5099068;28;20023;-71
2021/06/17 10:43:21;;;;;;;12.30;4.57;;;;;;;41.67;20.21;100900.66;5081445;28;20035;-71
2021/06/17 10:45:47;;;;;;;5.00;3.97;;;;;;;42.11;18.99;100903.50;5086038;28;20028;-73
2021/06/17 10:48:14;;;;;;;6.30;3.75;;;;;;;40.75;19.48;100910.25;5090178;28;20028;-72
2021/06/17 10:51:07;;;;;;;7.53;3.88;;;;;;;40.42;19.62;100908.22;5087829;28;20035;-71
2021/06/17 10:53:35;;;;;;;10.35;4.38;;;;;;;43.58;17.72;100914.81;5071124;28;20446;-73
2021/06/17 10:56:07;;;;;;;;;;;;;;;41.24;18.96;100920.16;5088792;28;20091;-73
2021/06/17 11:02:14;;;;;;;5.80;3.72;;;;;;;41.16;18.71;100896.47;5086659;28;20039;-75
2021/06/17 11:04:42;;;;;;;6.53;3.45;;;;;;;41.43;18.90;100893.47;5086952;28;20404;-74
2021/06/17 11:07:09;;;;;;;6.53;3.55;;;;;;;39.18;20.40;100889.84;5092749;28;20024;-72
2021/06/17 11:09:35;;;;;;;9.35;3.90;;;;;;;37.49;22.53;100888.84;5093130;28;20035;-72
2021/06/17 11:12:03;;;;;;;4.30;3.13;;;;;;;37.18;22.44;100885.28;5093235;28;20024;-72
2021/06/17 11:14:40;;;;;;;6.35;3.35;;;;;;;35.17;25.02;100899.69;5093245;28;20028;-72
2021/06/17 11:17:34;;;;;;;6.20;4.03;;;;;;;34.06;27.35;100883.47;5084687;28;20035;-72
2021/06/17 11:23:27;;;;;;;9.50;3.58;;;;;;;34.24;27.29;100886.22;5086649;28;20070;-72
2021/06/17 11:25:56;;;;;;;6.18;4.10;;;;;;;34.08;28.51;100876.25;5091225;28;20020;-71
2021/06/17 11:28:22;;;;;;;6.88;4.32;;;;;;;34.08;27.85;100881.59;5089739;28;20055;-71
2021/06/17 11:30:53;;;;;;;4.75;3.55;;;;;;;33.80;28.31;100880.16;5079972;28;20406;-72
2021/06/17 11:33:24;;;;;;;5.18;3.60;;;;;;;33.26;29.26;100876.25;5085051;28;20035;-71
2021/06/17 11:35:52;;;;;;;5.22;3.75;;;;;;;33.38;29.80;100885.53;5089820;28;20020;-71
2021/06/17 11:38:25;;;;;;;9.15;4.18;;;;;;;33.80;29.25;100866.78;5069634;28;20745;-71
2021/06/17 11:40:52;;;;;;;4.82;3.67;;;;;;;33.61;30.23;100871.22;5082047;28;20028;-71
2021/06/17 11:43:22;;;;;;;7.47;3.60;;;;;;;33.79;27.42;100874.84;5088516;28;20069;-72
2021/06/17 11:45:48;;;;;;;6.80;3.35;;;;;;;34.04;27.98;100869.31;5087923;28;20020;-72